Time;durP1;ratioP1;P1;durP2;ratioP2;P2;SDS_P1;SDS_P2;PMS_P1;PMS_P2;Temp;Humidity;BMP_temperature;BMP_pressure;BME280_temperature;BME280_humidity;BME280_pressure;Samples;Min_cycle;Max_cycle;Signal;HPM_P1;HPM_P2
2023/06/16 00:02:17;;;;;;;5.17;4.20;;;18.40;72.60;;;;;;10231860;28;20228;-70
2023/06/16 00:07:19;;;;;;;5.30;4.57;;;18.30;73.20;;;;;;10231115;28;20234;-69
2023/06/16 00:12:20;;;;;;;5.20;4.03;;;18.30;73.60;;;;;;10220622;28;20254;-69
2023/06/16 00:17:23;;;;;;;6.83;4.40;;;18.10;74.20;;;;;;10227952;28;20251;-69
2023/06/16 00:22:25;;;;;;;7.43;4.93;;;18.10;73.70;;;;;;10228338;28;20284;-69
2023/06/16 00:27:26;;;;;;;8.30;5.43;;;18.10;73.20;;;;;;10216605;28;20220;-69
2023/06/16 00:32:26;;;;;;;6.13;4.20;;;18.10;72.70;;;;;;10226298;28;20312;-69
2023/06/16 00:37:27;;;;;;;8.70;4.30;;;18.10;70.60;;;;;;10241843;28;20636;-68
2023/06/16 00:42:28;;;;;;;4.70;3.43;;;18.20;67.60;;;;;;10232411;28;20239;-69
2023/06/16 00:47:29;;;;;;;4.90;3.77;;;18.20;68.70;;;;;;10230550;28;20610;-67
2023/06/16 00:52:35;;;;;;;5.00;4.20;;;18.10;69.00;;;;;;10218910;28;20239;-70
2023/06/16 00:57:36;;;;;;;5.90;4.20;;;18.00;71.80;;;;;;10229582;28;20297;-67
2023/06/16 01:02:38;;;;;;;6.10;4.07;;;17.90;70.70;;;;;;10218747;28;20235;-68
2023/06/16 01:08:02;;;;;;;5.33;3.97;;;17.90;70.20;;;;;;10229393;28;20702;-67
2023/06/16 01:13:13;;;;;;;3.90;3.50;;;17.90;70.90;;;;;;10219357;28;20239;-67
2023/06/16 01:18:22;;;;;;;6.50;4.00;;;17.80;70.20;;;;;;10224561;28;20271;-66
2023/06/16 01:23:54;;;;;;;7.13;4.13;;;17.60;71.30;;;;;;10217349;28;20232;-67
2023/06/16 01:28:55;;;;;;;8.70;4.40;;;17.50;72.50;;;;;;10219413;28;20255;-68
2023/06/16 01:33:56;;;;;;;10.40;4.30;;;17.40;75.10;;;;;;10227457;28;20606;-68
2023/06/16 01:39:01;;;;;;;9.07;4.63;;;17.40;73.50;;;;;;10220091;28;20223;-66
2023/06/16 01:44:02;;;;;;;10.87;4.27;;;17.40;71.70;;;;;;10217919;28;20240;-66
2023/06/16 01:49:03;;;;;;;6.03;4.10;;;17.50;70.90;;;;;;10224754;28;20687;-68
2023/06/16 01:54:03;;;;;;;5.13;3.60;;;17.50;69.90;;;;;;10221432;28;20234;-69
2023/06/16 01:59:04;;;;;;;6.00;3.60;;;17.50;69.70;;;;;;10217816;28;20269;-68
2023/06/16 02:04:12;;;;;;;5.83;3.90;;;17.40;69.80;;;;;;10231531;28;20338;-68
2023/06/16 02:09:15;;;;;;;5.50;4.17;;;17.40;70.00;;;;;;10222971;28;20230;-68
2023/06/16 02:14:17;;;;;;;5.80;3.80;;;17.30;70.40;;;;;;10217309;28;20223;-68
2023/06/16 02:19:17;;;;;;;4.93;3.83;;;17.10;70.80;;;;;;10222037;28;20222;-68
2023/06/16 02:24:18;;;;;;;4.50;3.53;;;17.10;71.10;;;;;;10223374;28;20222;-68
2023/06/16 02:29:18;;;;;;;5.93;3.83;;;17.00;71.70;;;;;;10221143;28;20704;-68
2023/06/16 02:34:19;;;;;;;5.50;3.73;;;17.00;72.00;;;;;;10223559;28;20735;-68
2023/06/16 02:39:21;;;;;;;4.90;3.60;;;16.90;72.00;;;;;;10227110;28;21061;-70
2023/06/16 02:44:25;;;;;;;6.73;4.50;;;16.90;72.00;;;;;;10215072;28;20232;-69
2023/06/16 02:49:26;;;;;;;6.00;3.70;;;16.80;72.10;;;;;;10219130;28;20742;-68
2023/06/16 02:54:26;;;;;;;10.83;4.17;;;16.90;72.10;;;;;;10220804;28;20310;-69
2023/06/16 02:59:27;;;;;;;5.17;3.73;;;16.90;72.00;;;;;;10227211;28;20219;-67
2023/06/16 03:04:27;;;;;;;5.90;4.00;;;16.80;71.60;;;;;;10221916;28;20215;-69
2023/06/16 03:09:28;;;;;;;9.37;4.03;;;16.80;71.90;;;;;;10219820;28;20211;-68
2023/06/16 03:14:29;;;;;;;9.13;4.13;;;16.80;72.30;;;;;;10228331;28;20223;-66
2023/06/16 03:19:29;;;;;;;7.00;4.00;;;16.70;72.40;;;;;;10222064;28;20224;-66
2023/06/16 03:24:33;;;;;;;4.13;3.70;;;16.80;72.60;;;;;;10231278;28;20223;-68
2023/06/16 03:29:33;;;;;;;5.00;4.03;;;16.80;72.70;;;;;;10221774;28;20224;-68
2023/06/16 03:34:34;;;;;;;5.90;4.00;;;16.80;72.90;;;;;;10226607;28;20215;-66
2023/06/16 03:39:34;;;;;;;5.17;4.30;;;16.80;72.70;;;;;;10227963;28;20224;-67
2023/06/16 03:44:35;;;;;;;6.20;4.10;;;16.80;72.60;;;;;;10226388;28;20269;-66
2023/06/16 03:49:35;;;;;;;8.00;4.27;;;16.80;72.50;;;;;;10222091;28;20253;-69
2023/06/16 03:54:36;;;;;;;5.37;3.83;;;16.80;72.40;;;;;;10228176;28;20306;-68
2023/06/16 03:59:37;;;;;;;9.63;4.00;;;16.80;72.80;;;;;;10232844;28;20254;-69
2023/06/16 04:04:38;;;;;;;8.90;4.20;;;16.80;72.60;;;;;;10229415;28;20861;-73
2023/06/16 04:09:38;;;;;;;9.93;4.23;;;16.80;72.50;;;;;;10223965;28;20227;-66
2023/06/16 04:14:39;;;;;;;8.23;4.60;;;17.00;72.50;;;;;;10227749;28;20779;-67
2023/06/16 04:19:41;;;;;;;7.13;5.00;;;17.10;72.10;;;;;;10220972;28;20374;-66
2023/06/16 04:24:41;;;;;;;5.60;4.00;;;17.20;71.60;;;;;;10222882;28;20216;-63
2023/06/16 04:29:42;;;;;;;11.40;4.20;;;17.40;71.30;;;;;;10238641;28;20224;-63
2023/06/16 04:34:43;;;;;;;5.07;4.20;;;17.50;71.30;;;;;;10254020;28;20219;-62
2023/06/16 04:39:43;;;;;;;8.30;4.50;;;17.70;70.70;;;;;;10232275;28;20278;-66
2023/06/16 04:44:44;;;;;;;8.20;3.97;;;17.80;69.30;;;;;;10228841;28;20649;-67
2023/06/16 04:49:44;;;;;;;9.40;4.30;;;17.70;70.00;;;;;;10232432;28;20211;-67
2023/06/16 04:54:45;;;;;;;7.23;4.03;;;17.60;70.70;;;;;;10220257;28;20258;-67
2023/06/16 04:59:46;;;;;;;7.73;4.10;;;17.70;70.50;;;;;;10223553;28;20220;-67
2023/06/16 05:04:47;;;;;;;7.93;4.20;;;17.90;70.20;;;;;;10226962;28;20226;-65
2023/06/16 05:09:49;;;;;;;9.73;4.47;;;19.50;66.30;;;;;;10232657;28;20238;-65
2023/06/16 05:14:49;;;;;;;9.90;4.53;;;21.10;60.50;;;;;;10225632;28;20227;-65
2023/06/16 05:19:51;;;;;;;13.03;4.67;;;22.30;57.00;;;;;;10225025;28;20224;-66
2023/06/16 05:24:57;;;;;;;11.07;4.60;;;22.80;56.00;;;;;;10229086;28;20310;-67
2023/06/16 05:30:01;;;;;;;11.80;5.60;;;23.20;54.60;;;;;;10234040;28;20314;-67
2023/06/16 05:35:01;;;;;;;9.60;5.30;;;23.30;54.40;;;;;;10223527;28;20254;-65
2023/06/16 05:40:02;;;;;;;12.43;4.97;;;24.00;53.40;;;;;;10221814;28;20680;-66
2023/06/16 05:45:03;;;;;;;7.90;4.93;;;24.80;52.20;;;;;;10226781;28;20353;-66
2023/06/16 05:50:04;;;;;;;12.50;5.70;;;25.80;50.70;;;;;;10219109;28;20319;-68
2023/06/16 05:55:06;;;;;;;7.13;4.83;;;27.30;48.10;;;;;;10230358;28;20215;-67
2023/06/16 06:00:07;;;;;;;13.73;5.73;;;28.30;46.70;;;;;;10221319;28;20272;-66
2023/06/16 06:05:08;;;;;;;10.17;4.80;;;28.40;45.30;;;;;;10221679;28;20211;-71
2023/06/16 06:10:09;;;;;;;7.30;4.60;;;28.00;45.90;;;;;;10219343;29;20591;-73
2023/06/16 06:15:10;;;;;;;8.07;4.37;;;27.80;46.70;;;;;;10230744;28;20579;-75
2023/06/16 06:20:11;;;;;;;6.37;4.30;;;28.70;45.00;;;;;;10231568;28;20182;-75
2023/06/16 06:25:13;;;;;;;7.57;4.53;;;29.50;44.00;;;;;;10230002;28;20219;-73
2023/06/16 06:30:14;;;;;;;7.93;4.67;;;31.10;41.40;;;;;;10228501;28;20964;-74
2023/06/16 06:35:14;;;;;;;11.40;4.67;;;31.00;41.00;;;;;;10255954;28;20184;-74
2023/06/16 06:40:15;;;;;;;13.10;4.80;;;30.50;41.50;;;;;;10223006;28;20266;-75
2023/06/16 06:45:16;;;;;;;7.47;4.60;;;30.30;42.00;;;;;;10219869;28;20211;-75
2023/06/16 06:50:16;;;;;;;8.43;5.27;;;30.70;42.10;;;;;;10239292;28;20195;-76
2023/06/16 06:55:18;;;;;;;6.37;4.60;;;32.10;41.00;;;;;;10231701;28;20187;-75
2023/06/16 07:00:19;;;;;;;8.90;4.70;;;32.10;40.50;;;;;;10262569;28;20184;-75
2023/06/16 07:05:20;;;;;;;6.40;4.00;;;32.10;40.30;;;;;;10243907;28;20582;-76
2023/06/16 07:10:21;;;;;;;6.80;3.90;;;32.50;40.30;;;;;;10230256;28;20176;-76
2023/06/16 07:15:21;;;;;;;5.97;3.70;;;32.50;39.60;;;;;;10228294;28;20195;-76
2023/06/16 07:20:22;;;;;;;3.63;3.00;;;33.90;39.90;;;;;;10230232;28;20179;-73
2023/06/16 07:25:22;;;;;;;4.57;3.30;;;35.40;36.20;;;;;;10230881;28;20582;-75
2023/06/16 07:30:23;;;;;;;5.23;3.40;;;35.90;34.60;;;;;;10231106;28;20554;-70
2023/06/16 07:35:24;;;;;;;3.47;3.10;;;35.40;34.60;;;;;;10220609;28;20199;-71
2023/06/16 07:40:25;;;;;;;7.10;3.50;;;35.90;34.50;;;;;;10244641;28;21798;-71
2023/06/16 07:45:25;;;;;;;8.83;3.30;;;35.10;35.00;;;;;;10228862;28;20309;-72
2023/06/16 07:50:26;;;;;;;5.87;3.30;;;34.10;36.60;;;;;;10220860;28;20287;-72
2023/06/16 07:55:26;;;;;;;5.97;3.27;;;36.00;34.90;;;;;;10227673;28;20215;-71
2023/06/16 08:00:27;;;;;;;7.80;4.10;;;37.80;33.00;;;;;;10223313;28;20299;-72
2023/06/16 08:05:28;;;;;;;8.90;3.70;;;38.80;31.10;;;;;;10229884;28;20228;-72
2023/06/16 08:10:28;;;;;;;7.23;3.40;;;37.40;30.60;;;;;;10227825;28;20273;-72
2023/06/16 08:15:29;;;;;;;7.20;3.23;;;37.50;32.00;;;;;;10228113;28;20298;-71
2023/06/16 08:20:30;;;;;;;3.67;2.90;;;37.20;31.00;;;;;;10222742;28;20228;-72
2023/06/16 08:25:30;;;;;;;8.17;3.50;;;36.50;31.10;;;;;;10226939;28;20226;-73
2023/06/16 08:30:31;;;;;;;7.90;3.53;;;36.10;32.00;;;;;;10226846;28;20223;-71
2023/06/16 08:35:32;;;;;;;4.10;3.03;;;35.60;31.80;;;;;;10225652;28;20252;-73
2023/06/16 08:40:33;;;;;;;5.50;3.23;;;35.50;32.50;;;;;;10239290;28;20697;-76
2023/06/16 08:45:35;;;;;;;4.60;3.33;;;34.90;32.50;;;;;;10232449;28;20243;-72
2023/06/16 08:50:35;;;;;;;4.00;3.23;;;36.40;32.50;;;;;;10232186;28;20272;-73
2023/06/16 08:55:42;;;;;;;4.93;3.30;;;38.30;30.00;;;;;;10251021;28;20299;-73
2023/06/16 09:00:43;;;;;;;4.83;3.40;;;38.60;29.70;;;;;;10236836;28;20922;-73
2023/06/16 09:05:45;;;;;;;5.03;3.23;;;38.60;29.40;;;;;;10233573;28;20235;-74
2023/06/16 09:10:54;;;;;;;6.33;3.40;;;37.70;29.70;;;;;;10253353;28;20227;-75
2023/06/16 09:15:56;;;;;;;5.60;3.47;;;40.00;28.60;;;;;;10233834;28;20858;-74
2023/06/16 09:21:00;;;;;;;5.32;3.30;;;42.60;27.40;;;;;;10226782;28;20255;-76
2023/06/16 09:26:08;;;;;;;5.13;3.22;;;44.10;25.90;;;;;;10223670;28;20278;-75
2023/06/16 09:31:12;;;;;;;3.90;3.13;;;44.00;26.00;;;;;;10222954;28;20219;-75
2023/06/16 09:36:25;;;;;;;4.90;3.22;;;43.20;26.60;;;;;;10226926;28;20302;-75
2023/06/16 09:41:26;;;;;;;7.53;3.42;;;42.30;26.70;;;;;;10261688;28;20223;-74
2023/06/16 09:46:27;;;;;;;4.20;3.42;;;40.70;28.00;;;;;;10217459;28;20228;-74
2023/06/16 09:51:27;;;;;;;4.30;3.40;;;40.90;27.20;;;;;;10223742;28;20235;-74
2023/06/16 09:56:29;;;;;;;4.43;3.42;;;41.30;26.70;;;;;;10217611;28;20220;-74
2023/06/16 10:01:34;;;;;;;7.55;3.50;;;43.20;26.20;;;;;;10226854;28;20368;-74
2023/06/16 10:06:43;;;;;;;8.82;4.20;;;44.00;25.60;;;;;;10225462;28;20220;-75
2023/06/16 10:11:47;;;;;;;7.63;3.35;;;44.90;25.20;;;;;;10231932;28;20578;-75
2023/06/16 10:16:49;;;;;;;9.10;3.75;;;45.20;24.90;;;;;;10235530;28;20220;-75
2023/06/16 10:21:50;;;;;;;3.78;3.35;;;44.00;25.20;;;;;;10230934;28;20260;-74
2023/06/16 10:26:51;;;;;;;8.05;3.70;;;43.90;24.90;;;;;;10223587;28;20224;-76
2023/06/16 10:32:08;;;;;;;7.30;3.50;;;43.70;24.70;;;;;;10219788;28;20239;-75
2023/06/16 10:37:09;;;;;;;3.90;3.50;;;43.00;24.90;;;;;;10232115;28;20223;-73
2023/06/16 10:42:14;;;;;;;20.40;4.22;;;43.10;25.50;;;;;;10229390;28;20234;-75
2023/06/16 10:47:15;;;;;;;15.55;4.10;;;44.00;25.00;;;;;;10216824;28;20575;-74
2023/06/16 10:52:17;;;;;;;5.68;3.55;;;44.10;24.80;;;;;;10222845;28;20227;-73
2023/06/16 10:57:17;;;;;;;4.65;3.55;;;43.30;25.30;;;;;;10216951;28;20228;-74
2023/06/16 11:02:23;;;;;;;7.30;4.05;;;43.10;25.00;;;;;;10222715;28;20793;-73
2023/06/16 11:07:23;;;;;;;9.57;3.67;;;42.20;25.40;;;;;;10228146;28;20266;-74
2023/06/16 11:12:25;;;;;;;5.00;3.73;;;41.90;25.90;;;;;;10236618;28;20224;-77
2023/06/16 11:17:25;;;;;;;7.97;3.20;;;39.40;27.10;;;;;;10225804;28;20227;-75
2023/06/16 11:22:31;;;;;;;5.03;3.07;;;37.10;28.60;;;;;;10236995;28;20259;-74
2023/06/16 11:27:32;;;;;;;3.83;3.53;;;38.30;28.20;;;;;;10216226;28;20232;-74
2023/06/16 11:32:37;;;;;;;5.73;3.63;;;39.80;26.90;;;;;;10227592;28;20216;-75
2023/06/16 11:37:51;;;;;;;10.63;3.43;;;40.30;26.80;;;;;;10235294;28;20223;-75
2023/06/16 11:42:54;;;;;;;6.27;3.80;;;37.60;28.60;;;;;;10247740;28;20232;-73
2023/06/16 11:47:56;;;;;;;4.07;3.60;;;34.60;30.50;;;;;;10224302;28;20300;-74
2023/06/16 11:52:57;;;;;;;4.23;3.90;;;33.40;32.80;;;;;;10224979;28;20699;-74
2023/06/16 11:57:57;;;;;;;8.10;3.80;;;32.90;32.70;;;;;;10223939;28;20227;-74
2023/06/16 12:02:58;;;;;;;4.70;3.57;;;32.00;33.00;;;;;;10228895;28;20603;-73
2023/06/16 12:07:59;;;;;;;5.57;3.57;;;31.90;35.00;;;;;;10227827;28;20246;-73
2023/06/16 12:12:59;;;;;;;3.80;3.43;;;32.50;34.70;;;;;;10226673;28;20254;-73
2023/06/16 12:18:00;;;;;;;6.33;4.10;;;32.20;36.10;;;;;;10234664;28;20760;-74
2023/06/16 12:23:01;;;;;;;5.13;4.07;;;31.60;36.50;;;;;;10237964;28;20212;-73
2023/06/16 12:28:03;;;;;;;4.77;3.70;;;30.80;36.60;;;;;;10238209;28;20220;-73
2023/06/16 12:33:09;;;;;;;5.50;3.70;;;30.70;38.40;;;;;;10225493;28;20789;-73
2023/06/16 12:38:09;;;;;;;5.17;3.53;;;30.60;38.00;;;;;;10224221;28;20216;-73
2023/06/16 12:43:23;;;;;;;6.90;3.87;;;30.10;38.70;;;;;;10217980;28;20579;-72
2023/06/16 12:48:24;;;;;;;6.63;3.50;;;30.50;38.10;;;;;;10226411;28;20235;-72
2023/06/16 12:53:24;;;;;;;6.00;4.13;;;31.00;37.30;;;;;;10218367;28;20902;-74
2023/06/16 12:58:25;;;;;;;7.03;3.80;;;31.10;37.60;;;;;;10229741;28;20220;-73
2023/06/16 13:03:26;;;;;;;4.03;3.73;;;30.80;37.80;;;;;;10232768;28;20235;-74
2023/06/16 13:08:26;;;;;;;4.70;3.73;;;31.00;37.70;;;;;;10225264;28;20219;-73
2023/06/16 13:13:30;;;;;;;6.87;3.60;;;30.70;37.80;;;;;;10219628;28;20741;-73
2023/06/16 13:18:33;;;;;;;4.83;3.63;;;30.40;38.60;;;;;;10223156;28;20248;-74
2023/06/16 13:23:34;;;;;;;4.97;3.33;;;30.40;39.10;;;;;;10230909;28;20231;-73
2023/06/16 13:28:37;;;;;;;6.50;3.13;;;30.40;38.70;;;;;;10216770;28;20242;-72
2023/06/16 13:33:37;;;;;;;8.57;3.77;;;29.90;40.40;;;;;;10223493;28;20268;-73
2023/06/16 13:38:38;;;;;;;3.47;3.13;;;29.60;41.70;;;;;;10223157;28;20242;-73
2023/06/16 13:43:42;;;;;;;9.63;3.80;;;29.20;42.00;;;;;;10216641;28;20258;-72
2023/06/16 13:48:44;;;;;;;8.30;2.77;;;28.90;43.10;;;;;;10223282;28;20247;-74
2023/06/16 13:53:45;;;;;;;3.43;2.27;;;28.20;42.50;;;;;;10219170;28;20727;-73
2023/06/16 13:58:45;;;;;;;3.53;2.50;;;27.90;41.90;;;;;;10228528;28;20223;-73
2023/06/16 14:03:46;;;;;;;3.50;2.73;;;28.20;41.10;;;;;;10219340;28;20230;-74
2023/06/16 14:08:47;;;;;;;4.93;3.10;;;28.60;40.10;;;;;;10223649;28;20241;-73
2023/06/16 14:13:47;;;;;;;3.67;2.97;;;29.10;39.00;;;;;;10215687;28;20769;-73
2023/06/16 14:18:50;;;;;;;5.03;2.60;;;29.20;38.20;;;;;;10223131;28;20226;-73
2023/06/16 14:23:51;;;;;;;4.23;2.60;;;29.20;37.50;;;;;;10235670;28;20253;-73
2023/06/16 14:28:51;;;;;;;5.43;3.17;;;29.20;37.60;;;;;;10228576;28;20764;-74
2023/06/16 14:33:54;;;;;;;5.73;2.30;;;29.20;38.20;;;;;;10223120;28;20273;-74
2023/06/16 14:38:55;;;;;;;4.50;2.40;;;28.90;38.40;;;;;;10229159;28;20229;-72
2023/06/16 14:43:55;;;;;;;4.73;2.90;;;28.60;39.20;;;;;;10222695;28;20223;-74
2023/06/16 14:48:59;;;;;;;2.90;2.60;;;28.60;39.60;;;;;;10222000;28;20594;-74
2023/06/16 14:54:00;;;;;;;3.17;2.87;;;28.50;40.10;;;;;;10230480;28;20312;-74
2023/06/16 14:59:00;;;;;;;3.70;3.00;;;28.30;39.90;;;;;;10218314;28;20354;-73
2023/06/16 15:04:02;;;;;;;6.43;3.13;;;28.20;40.80;;;;;;10214706;28;20332;-73
2023/06/16 15:09:03;;;;;;;3.33;3.10;;;28.30;41.40;;;;;;10224240;28;20290;-73
2023/06/16 15:14:03;;;;;;;4.97;3.20;;;28.50;40.80;;;;;;10228803;28;20691;-73
2023/06/16 15:19:06;;;;;;;3.60;3.20;;;28.70;40.80;;;;;;10229587;28;20710;-74
2023/06/16 15:24:07;;;;;;;4.33;3.27;;;28.80;40.60;;;;;;10223787;28;20739;-73
2023/06/16 15:29:08;;;;;;;3.93;3.40;;;28.60;41.00;;;;;;10233441;28;20227;-73
2023/06/16 15:34:08;;;;;;;5.50;3.40;;;28.60;41.30;;;;;;10223176;28;20255;-73
2023/06/16 15:39:09;;;;;;;4.67;3.60;;;28.50;41.50;;;;;;10225796;28;20262;-73
2023/06/16 15:44:09;;;;;;;4.23;3.73;;;28.70;40.90;;;;;;10222545;28;20241;-73
2023/06/16 15:49:10;;;;;;;4.57;3.37;;;28.90;40.80;;;;;;10230058;28;20258;-74
2023/06/16 15:54:11;;;;;;;3.90;3.60;;;29.40;40.50;;;;;;10222368;28;20232;-73
2023/06/16 15:59:11;;;;;;;7.20;3.50;;;29.60;39.90;;;;;;10218896;28;20220;-73
2023/06/16 16:04:12;;;;;;;11.60;3.87;;;29.60;39.60;;;;;;10225899;28;20597;-74
2023/06/16 16:09:12;;;;;;;4.73;3.30;;;29.40;39.30;;;;;;10234721;28;20576;-73
2023/06/16 16:14:15;;;;;;;7.63;3.80;;;28.70;40.00;;;;;;10227398;28;20220;-73
2023/06/16 16:19:16;;;;;;;3.90;3.40;;;28.30;41.20;;;;;;10219798;28;20235;-74
2023/06/16 16:24:19;;;;;;;4.20;3.33;;;28.30;41.60;;;;;;10230202;28;20722;-73
2023/06/16 16:29:20;;;;;;;5.23;3.47;;;27.90;43.10;;;;;;10240382;28;20222;-73
2023/06/16 16:34:21;;;;;;;6.20;3.57;;;27.40;43.20;;;;;;10231044;28;20220;-74
2023/06/16 16:39:22;;;;;;;3.90;3.60;;;27.20;44.00;;;;;;10216918;28;20234;-73
2023/06/16 16:44:30;;;;;;;7.17;3.77;;;27.10;44.20;;;;;;10224963;28;20235;-74
2023/06/16 16:49:31;;;;;;;4.57;3.70;;;27.20;44.70;;;;;;10219481;28;20577;-74
2023/06/16 16:54:31;;;;;;;5.27;3.97;;;27.30;44.70;;;;;;10232794;28;20224;-74
2023/06/16 16:59:32;;;;;;;8.73;3.97;;;27.30;44.40;;;;;;10218565;28;20583;-74
2023/06/16 17:04:32;;;;;;;4.57;3.40;;;27.40;44.00;;;;;;10226558;28;20216;-73
2023/06/16 17:09:33;;;;;;;5.33;3.97;;;27.30;44.30;;;;;;10232852;28;20772;-74
2023/06/16 17:14:34;;;;;;;3.83;3.27;;;27.20;45.00;;;;;;10224546;28;20273;-73
2023/06/16 17:19:34;;;;;;;6.10;4.00;;;27.10;44.70;;;;;;10218877;28;20349;-76
2023/06/16 17:24:35;;;;;;;4.27;3.40;;;27.00;44.10;;;;;;10224894;28;20310;-75
2023/06/16 17:29:36;;;;;;;4.20;3.67;;;26.90;44.10;;;;;;10225874;28;20215;-73
2023/06/16 17:34:36;;;;;;;6.67;3.73;;;26.90;44.50;;;;;;10218861;28;20607;-74
2023/06/16 17:39:37;;;;;;;6.13;3.70;;;26.80;45.20;;;;;;10224082;28;20223;-74
2023/06/16 17:44:37;;;;;;;7.67;3.80;;;26.80;45.40;;;;;;10241282;28;20238;-73
2023/06/16 17:49:41;;;;;;;5.73;3.63;;;26.60;45.70;;;;;;10223750;28;20392;-73
2023/06/16 17:54:41;;;;;;;5.47;3.97;;;26.40;46.30;;;;;;10232043;28;20324;-74
2023/06/16 17:59:42;;;;;;;6.27;4.03;;;26.20;46.40;;;;;;10220183;28;20228;-74
2023/06/16 18:04:45;;;;;;;5.73;4.03;;;26.00;46.80;;;;;;10222746;28;20227;-73
2023/06/16 18:09:46;;;;;;;5.10;3.67;;;25.80;46.70;;;;;;10219294;28;20247;-74
2023/06/16 18:14:47;;;;;;;8.90;4.40;;;25.70;47.40;;;;;;10225337;28;20322;-73
2023/06/16 18:19:47;;;;;;;5.23;3.97;;;25.70;47.60;;;;;;10221392;28;20295;-73
2023/06/16 18:24:48;;;;;;;5.73;4.17;;;25.60;47.70;;;;;;10233686;28;20614;-73
2023/06/16 18:29:52;;;;;;;6.27;3.87;;;25.40;48.20;;;;;;10229734;28;20252;-73
2023/06/16 18:34:52;;;;;;;5.03;4.13;;;25.20;48.80;;;;;;10228585;28;20234;-73
2023/06/16 18:39:53;;;;;;;7.93;5.47;;;25.10;49.10;;;;;;10221785;28;20299;-73
2023/06/16 18:44:53;;;;;;;5.40;4.63;;;25.00;48.70;;;;;;10227453;28;20324;-74
2023/06/16 18:49:54;;;;;;;6.53;4.70;;;24.90;48.20;;;;;;10233747;28;20763;-73
2023/06/16 18:54:56;;;;;;;6.23;4.50;;;24.70;48.30;;;;;;10227024;28;20227;-72
2023/06/16 18:59:56;;;;;;;8.57;5.77;;;24.70;48.90;;;;;;10240907;28;20226;-73
2023/06/16 19:04:57;;;;;;;8.33;5.20;;;24.50;49.00;;;;;;10230540;28;20226;-73
2023/06/16 19:09:57;;;;;;;11.70;6.20;;;24.30;49.40;;;;;;10225781;28;20345;-73
2023/06/16 19:14:58;;;;;;;9.37;5.57;;;24.20;50.50;;;;;;10222764;28;20229;-73
2023/06/16 19:19:59;;;;;;;11.23;5.40;;;24.00;51.70;;;;;;10224096;28;20224;-74
2023/06/16 19:25:00;;;;;;;9.97;5.60;;;23.80;52.80;;;;;;10221459;28;20228;-74
2023/06/16 19:30:01;;;;;;;6.60;4.97;;;23.60;54.50;;;;;;10225933;28;20228;-73
2023/06/16 19:35:02;;;;;;;9.37;5.73;;;23.30;55.60;;;;;;10223979;28;20224;-73
2023/06/16 19:40:06;;;;;;;9.90;5.77;;;23.20;56.60;;;;;;10236943;28;20269;-72
2023/06/16 19:45:07;;;;;;;11.87;6.30;;;23.00;57.60;;;;;;10220548;28;21053;-72
2023/06/16 19:50:08;;;;;;;18.93;6.37;;;22.90;57.70;;;;;;10230752;28;20681;-73
2023/06/16 19:55:09;;;;;;;6.80;4.97;;;22.70;58.20;;;;;;10226597;28;20200;-72
2023/06/16 20:00:10;;;;;;;6.97;5.07;;;22.60;58.20;;;;;;10227933;28;20196;-73
2023/06/16 20:05:14;;;;;;;9.77;5.90;;;22.40;58.80;;;;;;10230790;28;20207;-72
2023/06/16 20:10:15;;;;;;;9.03;5.57;;;22.20;59.50;;;;;;10212869;28;20173;-72
2023/06/16 20:15:16;;;;;;;10.70;5.50;;;22.00;60.10;;;;;;10227204;28;20186;-72
2023/06/16 20:20:16;;;;;;;11.87;6.07;;;21.90;61.10;;;;;;10236483;28;20234;-74
2023/06/16 20:25:17;;;;;;;7.53;5.33;;;21.80;61.40;;;;;;10242147;28;20299;-73
2023/06/16 20:30:18;;;;;;;7.07;5.40;;;21.70;61.40;;;;;;10221980;28;20184;-73
2023/06/16 20:35:18;;;;;;;13.90;6.17;;;21.60;61.70;;;;;;10225597;28;20274;-74
2023/06/16 20:40:19;;;;;;;9.80;5.90;;;21.50;62.30;;;;;;10229034;28;20191;-73
2023/06/16 20:45:22;;;;;;;8.23;5.67;;;21.40;62.80;;;;;;10226010;28;20233;-73
2023/06/16 20:50:29;;;;;;;7.70;5.70;;;21.30;63.20;;;;;;10227646;28;20275;-73
2023/06/16 20:55:31;;;;;;;8.13;6.27;;;21.20;63.70;;;;;;10219214;28;20226;-73
2023/06/16 21:00:32;;;;;;;9.33;5.30;;;21.10;64.40;;;;;;10220062;28;20220;-73
2023/06/16 21:05:33;;;;;;;7.50;6.33;;;21.00;65.00;;;;;;10233110;28;20244;-74
2023/06/16 21:10:35;;;;;;;11.20;6.40;;;20.90;65.80;;;;;;10230202;28;20234;-73
2023/06/16 21:15:36;;;;;;;8.60;6.20;;;20.80;66.50;;;;;;10226510;28;20643;-73
2023/06/16 21:20:36;;;;;;;9.50;7.00;;;20.80;67.00;;;;;;10231259;28;20592;-72
2023/06/16 21:25:37;;;;;;;7.97;6.30;;;20.60;67.20;;;;;;10218125;28;20226;-72
2023/06/16 21:30:38;;;;;;;8.40;5.90;;;20.60;67.80;;;;;;10233653;28;20918;-73
2023/06/16 21:35:38;;;;;;;12.77;6.80;;;20.50;68.70;;;;;;10219132;28;20222;-72
2023/06/16 21:40:39;;;;;;;7.87;5.73;;;20.40;70.40;;;;;;10226660;28;20223;-72
2023/06/16 21:45:40;;;;;;;8.87;5.97;;;20.30;70.20;;;;;;10224646;28;20239;-72
2023/06/16 21:50:40;;;;;;;9.10;5.70;;;20.30;70.50;;;;;;10226341;28;20242;-73
2023/06/16 21:55:41;;;;;;;12.87;7.23;;;20.30;70.20;;;;;;10226068;28;20222;-73
2023/06/16 22:00:42;;;;;;;10.83;6.43;;;20.30;68.70;;;;;;10226680;28;20293;-73
2023/06/16 22:05:43;;;;;;;7.90;5.50;;;20.20;70.00;;;;;;10230632;28;20226;-73
2023/06/16 22:10:43;;;;;;;12.97;7.00;;;20.10;70.50;;;;;;10227153;28;20611;-73
2023/06/16 22:15:44;;;;;;;10.20;6.37;;;20.00;71.40;;;;;;10227792;28;20223;-72
2023/06/16 22:20:45;;;;;;;9.17;6.40;;;20.00;71.80;;;;;;10225139;28;20235;-73
2023/06/16 22:25:47;;;;;;;9.77;5.73;;;19.90;72.70;;;;;;10224996;28;20239;-72
2023/06/16 22:30:48;;;;;;;6.93;5.50;;;19.80;72.70;;;;;;10221717;28;20785;-73
2023/06/16 22:35:49;;;;;;;8.63;6.53;;;19.70;73.40;;;;;;10219161;28;20260;-73
2023/06/16 22:40:49;;;;;;;6.80;6.07;;;19.60;73.90;;;;;;10228753;28;20366;-73
2023/06/16 22:45:50;;;;;;;6.97;6.07;;;19.60;73.60;;;;;;10231739;28;20232;-72
2023/06/16 22:50:57;;;;;;;12.23;6.03;;;19.50;74.00;;;;;;10219255;28;20218;-73
2023/06/16 22:55:57;;;;;;;7.80;5.77;;;19.50;74.40;;;;;;10226339;28;20322;-73
2023/06/16 23:00:58;;;;;;;8.57;5.50;;;19.40;75.30;;;;;;10220611;28;20339;-73
2023/06/16 23:05:59;;;;;;;9.20;5.90;;;19.30;73.20;;;;;;10215986;28;20600;-74
2023/06/16 23:11:00;;;;;;;9.00;5.93;;;19.30;73.30;;;;;;10219928;28;20223;-73
2023/06/16 23:16:03;;;;;;;6.50;5.50;;;19.30;73.60;;;;;;10230958;28;20726;-72
2023/06/16 23:21:04;;;;;;;8.13;5.40;;;19.20;73.70;;;;;;10224275;28;20687;-72
2023/06/16 23:26:05;;;;;;;7.03;5.30;;;19.20;72.30;;;;;;10219309;28;20243;-73
2023/06/16 23:31:05;;;;;;;9.07;5.77;;;19.20;72.80;;;;;;10222244;28;20274;-73
2023/06/16 23:36:06;;;;;;;7.03;5.50;;;19.20;72.00;;;;;;10228650;28;20228;-73
2023/06/16 23:41:07;;;;;;;8.73;5.50;;;19.20;71.90;;;;;;10226744;28;20219;-74
2023/06/16 23:46:08;;;;;;;6.87;5.20;;;19.20;71.80;;;;;;10234738;28;20636;-74
2023/06/16 23:51:08;;;;;;;6.37;5.33;;;19.10;72.40;;;;;;10224812;28;20220;-73
2023/06/16 23:56:09;;;;;;;9.00;5.57;;;19.00;73.60;;;;;;10233513;28;20224;-73
